createdAt,value
2018-01-02T00:01:54.113Z,1.30
2018-01-02T00:04:21.834Z,1.60
2018-01-02T00:06:49.522Z,1.57
2018-01-02T00:09:17.202Z,1.60
2018-01-02T00:11:44.970Z,1.80
2018-01-02T00:14:12.677Z,1.77
2018-01-02T00:16:40.386Z,2.10
2018-01-02T00:19:08.119Z,1.50
2018-01-02T00:21:35.791Z,2.40
2018-01-02T00:24:03.513Z,1.80
2018-01-02T00:26:31.202Z,2.13
2018-01-02T00:28:58.897Z,2.70
2018-01-02T00:31:26.570Z,2.07
2018-01-02T00:33:54.299Z,2.00
2018-01-02T00:36:21.983Z,2.33
2018-01-02T00:38:49.748Z,2.00
2018-01-02T00:41:17.481Z,1.93
2018-01-02T00:43:45.173Z,1.97
2018-01-02T00:46:12.868Z,1.70
2018-01-02T00:48:40.622Z,1.60
2018-01-02T00:51:08.308Z,2.07
2018-01-02T00:53:36.033Z,1.73
2018-01-02T00:56:03.713Z,1.67
2018-01-02T00:58:31.436Z,1.70
2018-01-02T01:00:59.117Z,1.80
2018-01-02T01:03:26.832Z,1.70
2018-01-02T01:05:54.456Z,1.80
2018-01-02T01:08:22.184Z,2.30
2018-01-02T01:10:49.904Z,1.80
2018-01-02T01:13:17.637Z,1.80
2018-01-02T01:15:45.263Z,1.60
2018-01-02T01:18:12.984Z,1.77
2018-01-02T01:20:40.657Z,1.90
2018-01-02T01:23:08.327Z,2.10
2018-01-02T01:25:36.012Z,1.67
2018-01-02T01:28:03.741Z,1.80
2018-01-02T01:30:31.425Z,1.90
2018-01-02T01:32:59.147Z,1.87
2018-01-02T01:35:26.826Z,2.10
2018-01-02T01:37:54.560Z,2.20
2018-01-02T01:40:22.172Z,1.97
2018-01-02T01:42:49.827Z,1.77
2018-01-02T01:45:17.526Z,2.00
2018-01-02T01:47:45.263Z,1.73
2018-01-02T01:50:12.956Z,1.87
2018-01-02T01:52:40.636Z,2.00
2018-01-02T01:55:08.302Z,1.77
2018-01-02T01:57:36.044Z,1.80
2018-01-02T02:00:03.726Z,2.17
2018-01-02T02:02:31.398Z,1.97
2018-01-02T02:04:59.060Z,2.20
2018-01-02T02:07:26.748Z,1.93
2018-01-02T02:09:54.520Z,1.97
2018-01-02T02:12:22.136Z,2.07
2018-01-02T02:14:49.853Z,1.97
2018-01-02T02:17:17.520Z,2.00
2018-01-02T02:19:45.237Z,1.60
2018-01-02T02:22:12.920Z,2.00
2018-01-02T02:24:40.633Z,1.97
2018-01-02T02:27:08.253Z,1.93
2018-01-02T02:29:36.008Z,2.00
2018-01-02T02:32:03.616Z,2.17
2018-01-02T02:34:31.274Z,1.80
2018-01-02T02:36:59.831Z,1.87
2018-01-02T02:39:27.539Z,1.67
2018-01-02T02:41:55.230Z,1.87
2018-01-02T02:44:22.943Z,1.70
2018-01-02T02:46:50.641Z,2.03
2018-01-02T02:49:18.367Z,1.90
2018-01-02T02:51:46.036Z,1.90
2018-01-02T02:54:13.750Z,1.97
2018-01-02T02:56:41.424Z,1.87
2018-01-02T02:59:09.159Z,2.10
2018-01-02T03:01:36.836Z,2.03
2018-01-02T03:04:04.553Z,2.30
2018-01-02T03:06:32.222Z,1.90
2018-01-02T03:08:59.993Z,1.90
2018-01-02T03:11:27.668Z,2.40
2018-01-02T03:13:55.388Z,1.90
2018-01-02T03:16:23.089Z,2.30
2018-01-02T03:18:50.804Z,2.43
2018-01-02T03:21:18.488Z,2.27
2018-01-02T03:23:46.208Z,2.33
2018-01-02T03:26:13.889Z,2.00
2018-01-02T03:28:41.558Z,2.27
2018-01-02T03:31:09.175Z,2.07
2018-01-02T03:33:36.897Z,2.77
2018-01-02T03:36:04.583Z,1.70
2018-01-02T03:38:32.203Z,2.03
2018-01-02T03:40:59.859Z,1.97
2018-01-02T03:43:27.531Z,2.10
2018-01-02T03:45:55.267Z,2.57
2018-01-02T03:48:22.945Z,2.30
2018-01-02T03:50:50.619Z,2.50
2018-01-02T03:53:18.285Z,2.20
2018-01-02T03:55:45.958Z,2.33
2018-01-02T03:58:13.583Z,1.90
2018-01-02T04:00:41.303Z,2.03
2018-01-02T04:03:08.992Z,2.10
2018-01-02T04:05:36.706Z,2.47
2018-01-02T04:08:04.380Z,1.90
2018-01-02T04:10:32.164Z,2.13
2018-01-02T04:12:59.844Z,2.33
2018-01-02T04:15:27.568Z,2.23
2018-01-02T04:17:55.239Z,2.20
2018-01-02T04:20:22.892Z,2.00
2018-01-02T04:22:50.572Z,2.50
2018-01-02T04:25:18.309Z,2.40
2018-01-02T04:27:45.991Z,2.20
2018-01-02T04:30:13.710Z,2.43
2018-01-02T04:32:41.380Z,2.00
2018-01-02T04:35:09.107Z,2.20
2018-01-02T04:37:36.782Z,2.37
2018-01-02T04:40:04.511Z,2.10
2018-01-02T04:42:32.153Z,2.10
2018-01-02T04:44:59.903Z,2.40
2018-01-02T04:47:27.591Z,2.30
2018-01-02T04:49:55.251Z,2.23
2018-01-02T04:52:22.935Z,2.07
2018-01-02T04:54:50.656Z,2.47
2018-01-02T04:57:18.367Z,2.63
2018-01-02T04:59:46.116Z,2.50
2018-01-02T05:02:13.804Z,2.13
2018-01-02T05:04:41.519Z,2.40
2018-01-02T05:07:09.200Z,2.50
2018-01-02T05:09:36.971Z,2.73
2018-01-02T05:12:04.612Z,2.57
2018-01-02T05:14:32.273Z,2.50
2018-01-02T05:16:59.961Z,2.43
2018-01-02T05:19:27.635Z,2.80
2018-01-02T05:21:55.374Z,3.23
2018-01-02T05:24:23.064Z,3.10
2018-01-02T05:26:50.735Z,2.80
2018-01-02T05:29:18.448Z,3.43
2018-01-02T05:31:46.130Z,2.93
2018-01-02T05:34:13.756Z,3.10
2018-01-02T05:36:41.418Z,4.00
2018-01-02T05:39:09.133Z,3.50
2018-01-02T05:41:36.865Z,3.47
2018-01-02T05:44:04.545Z,3.60
2018-01-02T05:46:32.282Z,3.67
2018-01-02T05:48:59.959Z,4.00
2018-01-02T05:51:27.713Z,3.57
2018-01-02T05:53:55.329Z,3.90
2018-01-02T05:56:23.068Z,3.83
2018-01-02T05:58:50.746Z,4.03
2018-01-02T06:01:18.499Z,3.77
2018-01-02T06:03:46.123Z,4.10
2018-01-02T06:06:13.872Z,4.00
2018-01-02T06:08:41.637Z,3.97
2018-01-02T06:11:09.363Z,3.80
2018-01-02T06:13:36.988Z,4.10
2018-01-02T06:16:04.731Z,4.37
2018-01-02T06:18:32.363Z,3.90
2018-01-02T06:21:00.112Z,4.57
2018-01-02T06:23:27.795Z,4.93
2018-01-02T06:25:55.933Z,3.97
2018-01-02T06:28:23.626Z,4.90
2018-01-02T06:30:51.377Z,4.67
2018-01-02T06:33:19.046Z,4.30
2018-01-02T06:35:46.767Z,4.43
2018-01-02T06:38:14.452Z,4.57
2018-01-02T06:40:42.182Z,4.93
2018-01-02T06:43:09.875Z,6.00
2018-01-02T06:45:37.551Z,5.80
2018-01-02T06:48:05.258Z,5.83
2018-01-02T06:50:33.000Z,5.00
2018-01-02T06:53:00.739Z,6.07
2018-01-02T06:55:28.480Z,5.70
2018-01-02T06:57:56.169Z,6.43
2018-01-02T07:00:23.847Z,6.70
2018-01-02T07:02:51.582Z,6.20
2018-01-02T07:05:19.264Z,6.80
2018-01-02T07:07:46.935Z,7.23
2018-01-02T07:10:14.676Z,7.00
2018-01-02T07:12:42.343Z,6.90
2018-01-02T07:15:10.004Z,7.53
2018-01-02T07:17:37.744Z,7.80
2018-01-02T07:20:05.428Z,7.43
2018-01-02T07:22:33.182Z,7.37
2018-01-02T07:25:00.800Z,8.17
2018-01-02T07:27:28.500Z,8.67
2018-01-02T07:29:56.224Z,9.73
2018-01-02T07:32:23.903Z,10.37
2018-01-02T07:34:51.603Z,9.70
2018-01-02T07:37:19.347Z,11.47
2018-01-02T07:39:47.025Z,10.10
2018-01-02T07:42:14.747Z,10.40
2018-01-02T07:44:42.439Z,11.70
2018-01-02T07:47:10.150Z,12.30
2018-01-02T07:49:37.839Z,11.27
2018-01-02T07:52:05.578Z,12.33
2018-01-02T07:54:33.314Z,11.53
2018-01-02T07:57:01.064Z,11.77
2018-01-02T07:59:28.761Z,11.00
2018-01-02T08:01:56.503Z,12.20
2018-01-02T08:04:24.190Z,12.20
2018-01-02T08:06:51.949Z,12.60
2018-01-02T08:09:19.686Z,14.53
2018-01-02T08:11:47.472Z,19.47
2018-01-02T08:14:15.163Z,26.60
2018-01-02T08:16:42.919Z,95.20
2018-01-02T08:19:10.637Z,60.00
2018-01-02T08:21:38.404Z,52.50
2018-01-02T08:24:06.119Z,36.77
2018-01-02T08:26:33.851Z,17.93
2018-01-02T08:29:01.553Z,19.67
2018-01-02T08:31:29.324Z,17.13
2018-01-02T08:33:57.012Z,16.37
2018-01-02T08:36:24.692Z,15.13
2018-01-02T08:38:52.389Z,15.43
2018-01-02T08:41:20.120Z,16.90
2018-01-02T08:43:47.878Z,13.93
2018-01-02T08:46:15.603Z,15.13
2018-01-02T08:48:43.286Z,13.43
2018-01-02T08:51:10.982Z,15.27
2018-01-02T08:53:38.651Z,13.50
2018-01-02T08:56:06.334Z,12.67
2018-01-02T08:58:34.076Z,14.97
2018-01-02T09:01:01.769Z,13.60
2018-01-02T09:03:29.536Z,15.30
2018-01-02T09:05:57.935Z,13.83
2018-01-02T09:08:25.668Z,13.17
2018-01-02T09:10:53.430Z,13.30
2018-01-02T09:13:21.212Z,13.80
2018-01-02T09:15:48.921Z,13.40
2018-01-02T09:18:16.661Z,14.13
2018-01-02T09:20:44.313Z,13.50
2018-01-02T09:23:12.099Z,12.73
2018-01-02T09:25:39.748Z,13.53
2018-01-02T09:28:07.505Z,13.17
2018-01-02T09:30:35.209Z,13.33
2018-01-02T09:33:02.884Z,14.80
2018-01-02T09:35:30.599Z,12.37
2018-01-02T09:37:58.359Z,13.33
2018-01-02T09:40:26.063Z,13.23
2018-01-02T09:42:53.780Z,13.67
2018-01-02T09:45:21.416Z,13.17
2018-01-02T09:47:49.104Z,12.87
2018-01-02T09:50:16.790Z,12.57
2018-01-02T09:52:44.474Z,12.37
2018-01-02T09:55:12.159Z,12.73
2018-01-02T09:57:39.844Z,12.10
2018-01-02T10:00:07.475Z,11.80
2018-01-02T10:02:35.159Z,10.17
2018-01-02T10:05:02.804Z,9.83
2018-01-02T10:07:30.488Z,10.27
2018-01-02T10:09:58.209Z,10.00
2018-01-02T10:12:25.885Z,9.07
2018-01-02T10:14:53.513Z,8.40
2018-01-02T10:17:21.156Z,27.37
2018-01-02T10:19:48.925Z,19.87
2018-01-02T10:22:16.582Z,54.30
2018-01-02T10:24:44.332Z,26.60
2018-01-02T10:27:11.951Z,9.80
2018-01-02T10:29:39.694Z,13.60
2018-01-02T10:32:07.367Z,13.60
2018-01-02T10:34:37.985Z,14.10
2018-01-02T10:37:06.389Z,13.73
2018-01-02T10:39:34.132Z,12.27
2018-01-02T10:42:19.084Z,9.80
2018-01-02T10:44:47.090Z,10.33
2018-01-02T10:47:14.785Z,9.80
2018-01-02T10:49:45.157Z,9.30
2018-01-02T10:52:17.933Z,9.30
2018-01-02T10:54:47.071Z,9.40
2018-01-02T10:57:14.746Z,9.73
2018-01-02T10:59:42.415Z,8.87
2018-01-02T11:02:10.098Z,11.70
2018-01-02T11:04:37.824Z,9.53
2018-01-02T11:07:05.459Z,9.70
2018-01-02T11:09:33.141Z,11.50
2018-01-02T11:12:00.783Z,8.17
2018-01-02T11:14:34.043Z,8.67
2018-01-02T11:17:01.671Z,8.13
2018-01-02T11:19:29.327Z,9.20
2018-01-02T11:21:56.998Z,8.70
2018-01-02T11:24:24.693Z,8.40
2018-01-02T11:26:52.356Z,8.73
2018-01-02T11:29:20.033Z,8.90
2018-01-02T11:31:47.663Z,9.23
2018-01-02T11:34:15.353Z,9.97
2018-01-02T11:36:43.045Z,10.47
2018-01-02T11:39:10.723Z,9.67
2018-01-02T11:41:38.430Z,8.67
2018-01-02T11:44:06.099Z,16.57
2018-01-02T11:46:33.721Z,10.20
2018-01-02T11:49:01.395Z,32.73
2018-01-02T11:51:29.054Z,45.60
2018-01-02T11:53:56.814Z,17.63
2018-01-02T11:56:24.438Z,13.43
2018-01-02T11:58:52.196Z,11.10
2018-01-02T12:01:19.900Z,9.70
2018-01-02T12:03:47.577Z,12.77
2018-01-02T12:06:15.212Z,11.10
2018-01-02T12:08:42.896Z,11.10
2018-01-02T12:11:10.644Z,8.70
2018-01-02T12:13:38.377Z,9.40
2018-01-02T12:16:06.062Z,8.40
2018-01-02T12:18:33.751Z,9.30
2018-01-02T12:21:01.376Z,8.50
2018-01-02T12:23:28.999Z,8.77
2018-01-02T12:25:56.788Z,7.70
2018-01-02T12:28:24.426Z,7.23
2018-01-02T12:30:52.097Z,7.80
2018-01-02T12:33:19.724Z,6.43
2018-01-02T12:35:47.394Z,6.87
2018-01-02T12:38:15.012Z,6.17
2018-01-02T12:40:42.693Z,7.27
2018-01-02T12:43:10.381Z,6.30
2018-01-02T12:45:38.054Z,6.00
2018-01-02T12:48:05.691Z,6.90
2018-01-02T12:50:33.406Z,6.60
2018-01-02T12:53:01.047Z,6.93
2018-01-02T12:55:28.722Z,7.53
2018-01-02T12:57:56.348Z,7.17
2018-01-02T13:00:24.024Z,7.50
2018-01-02T13:02:51.655Z,9.67
2018-01-02T13:05:19.426Z,8.43
2018-01-02T13:07:47.069Z,7.73
2018-01-02T13:10:14.760Z,8.63
2018-01-02T13:12:42.384Z,7.70
2018-01-02T13:15:10.065Z,8.00
2018-01-02T13:17:37.688Z,8.30
2018-01-02T13:20:05.422Z,7.83
2018-01-02T13:22:33.043Z,8.63
2018-01-02T13:25:00.734Z,8.73
2018-01-02T13:27:28.363Z,7.80
2018-01-02T13:29:56.023Z,9.33
2018-01-02T13:32:24.232Z,8.63
2018-01-02T13:34:51.902Z,9.10
2018-01-02T13:37:19.592Z,8.30
2018-01-02T13:39:47.262Z,8.47
2018-01-02T13:42:14.903Z,8.00
2018-01-02T13:44:42.590Z,8.87
2018-01-02T13:47:10.209Z,8.27
2018-01-02T13:49:37.875Z,6.93
2018-01-02T13:52:05.564Z,7.60
2018-01-02T13:54:33.300Z,7.20
2018-01-02T13:57:01.032Z,7.67
2018-01-02T13:59:28.741Z,8.27
2018-01-02T14:01:56.376Z,7.70
2018-01-02T14:04:25.082Z,7.10
2018-01-02T14:06:52.762Z,6.20
2018-01-02T14:09:20.573Z,6.90
2018-01-02T14:11:48.243Z,6.70
2018-01-02T14:14:15.892Z,7.10
2018-01-02T14:16:43.571Z,6.90
2018-01-02T14:19:11.197Z,7.67
2018-01-02T14:21:38.879Z,6.40
2018-01-02T14:24:06.503Z,6.60
2018-01-02T14:26:34.175Z,5.60
2018-01-02T14:29:01.872Z,6.20
2018-01-02T14:31:29.560Z,6.40
2018-01-02T14:33:57.187Z,8.37
2018-01-02T14:36:24.876Z,43.13
2018-01-02T14:38:52.527Z,76.20
2018-01-02T14:41:20.216Z,108.77
2018-01-02T14:43:47.864Z,197.17
2018-01-02T14:46:15.543Z,106.13
2018-01-02T14:48:44.126Z,55.60
2018-01-02T14:51:11.820Z,63.77
2018-01-02T14:53:39.456Z,41.10
2018-01-02T14:56:07.142Z,26.57
2018-01-02T14:58:34.773Z,14.30
2018-01-02T15:01:02.448Z,10.90
2018-01-02T15:03:30.095Z,8.33
2018-01-02T15:05:57.774Z,7.73
2018-01-02T15:08:25.396Z,6.63
2018-01-02T15:10:53.060Z,8.27
2018-01-02T15:13:20.681Z,6.23
2018-01-02T15:15:48.382Z,5.80
2018-01-02T15:18:16.007Z,6.03
2018-01-02T15:20:43.716Z,6.07
2018-01-02T15:23:11.445Z,5.30
2018-01-02T15:25:39.178Z,5.80
2018-01-02T15:28:06.903Z,5.63
2018-01-02T15:30:34.642Z,5.67
2018-01-02T15:33:02.344Z,5.37
2018-01-02T15:35:30.086Z,5.03
2018-01-02T15:37:57.764Z,4.30
2018-01-02T15:40:25.539Z,4.47
2018-01-02T15:42:53.265Z,4.70
2018-01-02T15:45:20.883Z,4.10
2018-01-02T15:47:48.637Z,4.10
2018-01-02T15:50:16.458Z,4.20
2018-01-02T15:52:44.159Z,4.37
2018-01-02T15:55:11.898Z,4.90
2018-01-02T15:57:39.672Z,4.20
2018-01-02T16:00:07.391Z,4.10
2018-01-02T16:02:35.139Z,4.27
2018-01-02T16:05:02.937Z,5.10
2018-01-02T16:07:30.616Z,5.10
2018-01-02T16:09:58.243Z,4.70
2018-01-02T16:12:26.064Z,4.70
2018-01-02T16:14:53.803Z,4.67
2018-01-02T16:17:21.582Z,5.20
2018-01-02T16:19:49.230Z,5.63
2018-01-02T16:22:16.969Z,4.70
2018-01-02T16:24:44.604Z,4.80
2018-01-02T16:27:12.375Z,5.30
2018-01-02T16:29:40.072Z,4.90
2018-01-02T16:32:07.765Z,5.13
2018-01-02T16:34:35.378Z,5.40
2018-01-02T16:37:03.115Z,5.20
2018-01-02T16:39:30.831Z,5.10
2018-01-02T16:41:58.499Z,5.60
2018-01-02T16:44:26.217Z,5.10
2018-01-02T16:46:54.039Z,5.63
2018-01-02T16:49:21.813Z,5.80
2018-01-02T16:51:49.654Z,4.50
2018-01-02T16:54:17.431Z,5.00
2018-01-02T16:56:45.179Z,5.30
2018-01-02T16:59:12.937Z,5.23
2018-01-02T17:01:40.692Z,6.30
2018-01-02T17:04:08.461Z,5.43
2018-01-02T17:06:36.258Z,5.60
2018-01-02T17:09:04.130Z,5.80
2018-01-02T17:11:32.030Z,6.10
2018-01-02T17:13:59.790Z,5.00
2018-01-02T17:16:27.524Z,5.47
2018-01-02T17:18:55.194Z,5.20
2018-01-02T17:21:23.004Z,5.80
2018-01-02T17:23:50.675Z,5.57
2018-01-02T17:26:18.407Z,5.80
2018-01-02T17:28:46.193Z,5.47
2018-01-02T17:31:13.931Z,5.63
2018-01-02T17:33:41.662Z,5.53
2018-01-02T17:36:09.409Z,6.10
2018-01-02T17:38:37.089Z,5.50
2018-01-02T17:41:04.824Z,5.90
2018-01-02T17:43:32.638Z,6.37
2018-01-02T17:46:00.380Z,6.23
2018-01-02T17:48:28.168Z,5.83
2018-01-02T17:50:55.850Z,5.97
2018-01-02T17:53:23.668Z,5.23
2018-01-02T17:55:51.399Z,6.00
2018-01-02T17:58:19.213Z,5.60
2018-01-02T18:00:46.966Z,5.60
2018-01-02T18:03:14.753Z,5.40
2018-01-02T18:05:42.437Z,5.30
2018-01-02T18:08:10.252Z,5.43
2018-01-02T18:10:37.911Z,4.93
2018-01-02T18:13:05.639Z,4.70
2018-01-02T18:15:33.336Z,5.00
2018-01-02T18:18:01.135Z,5.10
2018-01-02T18:20:28.874Z,5.20
2018-01-02T18:22:56.671Z,4.87
2018-01-02T18:25:24.424Z,4.83
2018-01-02T18:27:52.101Z,29.03
2018-01-02T18:30:19.839Z,31.30
2018-01-02T18:32:47.560Z,37.47
2018-01-02T18:35:15.257Z,12.30
2018-01-02T18:37:42.973Z,29.33
2018-01-02T18:40:10.719Z,23.00
2018-01-02T18:42:38.507Z,4.80
2018-01-02T18:45:07.565Z,7.23
2018-01-02T18:47:35.374Z,6.87
2018-01-02T18:50:03.021Z,5.20
2018-01-02T18:52:30.786Z,6.07
2018-01-02T18:54:58.490Z,5.03
2018-01-02T18:57:26.316Z,4.40
2018-01-02T18:59:54.057Z,5.97
2018-01-02T19:02:21.872Z,4.20
2018-01-02T19:04:50.111Z,5.60
2018-01-02T19:07:17.806Z,5.10
2018-01-02T19:09:45.594Z,4.60
2018-01-02T19:12:13.353Z,4.27
2018-01-02T19:14:41.072Z,4.30
2018-01-02T19:17:08.793Z,5.03
2018-01-02T19:19:36.590Z,4.33
2018-01-02T19:22:04.341Z,4.70
2018-01-02T19:24:32.142Z,5.30
2018-01-02T19:26:59.892Z,4.30
2018-01-02T19:29:27.682Z,4.00
2018-01-02T19:31:55.437Z,3.93
2018-01-02T19:34:23.244Z,5.10
2018-01-02T19:36:51.007Z,4.97
2018-01-02T19:39:18.802Z,5.80
2018-01-02T19:41:46.579Z,5.90
2018-01-02T19:44:14.362Z,5.00
2018-01-02T19:46:42.105Z,5.47
2018-01-02T19:49:09.894Z,5.23
2018-01-02T19:51:37.640Z,6.03
2018-01-02T19:54:05.355Z,5.23
2018-01-02T19:56:33.093Z,6.10
2018-01-02T19:59:00.880Z,5.07
2018-01-02T20:01:28.618Z,5.80
2018-01-02T20:03:56.343Z,6.60
2018-01-02T20:06:24.078Z,5.83
2018-01-02T20:08:51.879Z,5.50
2018-01-02T20:11:19.676Z,5.20
2018-01-02T20:13:47.493Z,6.57
2018-01-02T20:16:15.235Z,6.10
2018-01-02T20:18:43.023Z,5.70
2018-01-02T20:21:10.771Z,6.60
2018-01-02T20:23:38.548Z,5.57
2018-01-02T20:26:06.229Z,6.03
2018-01-02T20:28:34.055Z,5.87
2018-01-02T20:31:01.798Z,5.33
2018-01-02T20:33:29.622Z,5.17
2018-01-02T20:35:57.392Z,6.73
2018-01-02T20:38:25.180Z,6.00
2018-01-02T20:40:52.934Z,5.80
2018-01-02T20:43:20.732Z,5.60
2018-01-02T20:45:48.483Z,6.30
2018-01-02T20:48:16.240Z,5.20
2018-01-02T20:50:44.018Z,5.97
2018-01-02T20:53:11.699Z,6.20
2018-01-02T20:55:39.559Z,6.13
2018-01-02T20:58:07.299Z,6.80
2018-01-02T21:00:35.021Z,7.70
2018-01-02T21:03:02.788Z,6.80
2018-01-02T21:05:30.592Z,6.90
2018-01-02T21:07:58.329Z,7.00
2018-01-02T21:10:26.168Z,7.00
2018-01-02T21:12:53.862Z,7.73
2018-01-02T21:15:21.587Z,8.03
2018-01-02T21:17:49.330Z,7.27
2018-01-02T21:20:17.115Z,7.20
2018-01-02T21:22:44.864Z,7.00
2018-01-02T21:25:12.662Z,7.80
2018-01-02T21:27:40.409Z,7.60
2018-01-02T21:30:08.210Z,7.80
2018-01-02T21:32:35.943Z,7.80
2018-01-02T21:35:03.690Z,7.23
2018-01-02T21:37:31.370Z,7.30
2018-01-02T21:39:59.201Z,7.77
2018-01-02T21:42:26.932Z,6.97
2018-01-02T21:44:54.735Z,8.13
2018-01-02T21:47:22.492Z,7.60
2018-01-02T21:49:50.293Z,8.70
2018-01-02T21:52:17.978Z,7.40
2018-01-02T21:54:45.712Z,8.23
2018-01-02T21:57:13.481Z,7.97
2018-01-02T21:59:41.267Z,7.77
2018-01-02T22:02:09.027Z,6.90
2018-01-02T22:04:36.755Z,8.50
2018-01-02T22:07:04.514Z,6.70
2018-01-02T22:09:32.362Z,7.83
2018-01-02T22:12:00.122Z,7.87
2018-01-02T22:14:27.858Z,7.33
2018-01-02T22:16:55.592Z,6.77
2018-01-02T22:19:23.384Z,8.57
2018-01-02T22:21:51.129Z,7.27
2018-01-02T22:24:18.916Z,8.00
2018-01-02T22:26:46.653Z,8.00
2018-01-02T22:29:14.409Z,7.87
2018-01-02T22:31:42.197Z,8.10
2018-01-02T22:34:09.947Z,8.23
2018-01-02T22:36:37.774Z,8.80
2018-01-02T22:39:05.522Z,8.00
2018-01-02T22:41:33.328Z,7.47
2018-01-02T22:44:01.081Z,8.20
2018-01-02T22:46:28.888Z,8.83
2018-01-02T22:48:56.654Z,7.67
2018-01-02T22:51:24.461Z,8.77
2018-01-02T22:53:52.222Z,8.97
2018-01-02T22:56:20.020Z,7.80
2018-01-02T22:58:47.780Z,7.77
2018-01-02T23:01:15.613Z,7.90
2018-01-02T23:03:43.363Z,6.10
2018-01-02T23:06:11.083Z,7.67
2018-01-02T23:08:38.823Z,7.90
2018-01-02T23:11:06.664Z,8.03
2018-01-02T23:13:34.394Z,7.93
2018-01-02T23:16:02.185Z,7.83
2018-01-02T23:18:29.948Z,7.00
2018-01-02T23:20:57.744Z,5.80
2018-01-02T23:23:25.486Z,7.13
2018-01-02T23:25:53.197Z,7.60
2018-01-02T23:28:20.934Z,7.50
2018-01-02T23:30:48.746Z,7.20
2018-01-02T23:33:16.401Z,7.50
2018-01-02T23:35:44.132Z,6.57
2018-01-02T23:38:11.791Z,5.60
2018-01-02T23:40:39.576Z,5.77
2018-01-02T23:43:07.247Z,5.40
2018-01-02T23:45:34.956Z,6.30
2018-01-02T23:48:02.695Z,5.60
2018-01-02T23:50:30.486Z,6.17
2018-01-02T23:52:58.211Z,5.70
2018-01-02T23:55:26.036Z,5.53
2018-01-02T23:57:53.766Z,6.03
